createdAt,value
2023-01-30T00:00:20.957Z,13.250
2023-01-30T00:01:25.571Z,15.300
2023-01-30T00:02:27.676Z,14.900
2023-01-30T00:03:23.689Z,14.600
2023-01-30T00:04:58.623Z,15.250
2023-01-30T00:05:35.220Z,14.200
2023-01-30T00:06:31.005Z,14.400
2023-01-30T00:07:21.704Z,14.400
2023-01-30T00:08:39.270Z,14.350
2023-01-30T00:09:28.368Z,14.900
2023-01-30T00:10:21.869Z,15.250
2023-01-30T00:11:48.038Z,14.800
2023-01-30T00:12:32.494Z,12.200
2023-01-30T00:13:25.529Z,14.600
2023-01-30T00:14:21.172Z,15.600
2023-01-30T00:15:33.008Z,16.800
2023-01-30T00:16:24.774Z,13.200
2023-01-30T00:17:24.782Z,13.800
2023-01-30T00:18:37.102Z,14.800
2023-01-30T00:19:28.563Z,14.850
2023-01-30T00:20:26.018Z,17.000
2023-01-30T00:21:22.145Z,15.400
2023-01-30T00:23:00.057Z,15.800
2023-01-30T00:23:28.610Z,15.350
2023-01-30T00:24:19.777Z,18.500
2023-01-30T00:25:34.568Z,15.800
2023-01-30T00:26:28.718Z,12.000
2023-01-30T00:27:27.008Z,13.100
2023-01-30T00:28:22.476Z,12.850
2023-01-30T00:29:32.169Z,12.100
2023-01-30T00:30:27.937Z,13.850
2023-01-30T00:31:25.766Z,12.600
2023-01-30T00:32:20.861Z,15.100
2023-01-30T00:33:52.556Z,12.600
2023-01-30T00:34:26.670Z,15.300
2023-01-30T00:35:20.644Z,14.650
2023-01-30T00:36:53.243Z,14.800
2023-01-30T00:37:37.078Z,14.400
2023-01-30T00:38:22.814Z,14.700
2023-01-30T00:39:21.395Z,14.150
2023-01-30T00:40:59.409Z,15.800
2023-01-30T00:41:24.735Z,15.200
2023-01-30T00:42:30.239Z,15.600
2023-01-30T00:43:30.925Z,15.900
2023-01-30T00:44:41.453Z,16.250
2023-01-30T00:45:24.327Z,16.700
2023-01-30T00:46:25.477Z,15.600
2023-01-30T00:47:21.698Z,15.000
2023-01-30T00:48:25.029Z,14.700
2023-01-30T00:49:32.936Z,13.800
2023-01-30T00:50:30.933Z,15.450
2023-01-30T00:51:29.445Z,14.200
2023-01-30T00:52:42.337Z,14.400
2023-01-30T00:53:25.916Z,15.100
2023-01-30T00:54:24.490Z,14.350
2023-01-30T00:55:40.239Z,14.500
2023-01-30T00:56:21.176Z,13.400
2023-01-30T00:57:21.373Z,15.900
2023-01-30T00:58:26.871Z,15.400
2023-01-30T00:59:38.534Z,15.000
2023-01-30T01:00:30.766Z,14.500
2023-01-30T01:01:29.890Z,14.800
2023-01-30T01:02:24.953Z,15.350
2023-01-30T01:03:38.510Z,16.700
2023-01-30T01:04:25.854Z,16.600
2023-01-30T01:05:28.224Z,15.500
2023-01-30T01:06:22.894Z,16.950
2023-01-30T01:07:32.811Z,15.600
2023-01-30T01:08:27.792Z,15.300
2023-01-30T01:09:28.145Z,14.500
2023-01-30T01:10:22.732Z,15.850
2023-01-30T01:11:28.756Z,15.750
2023-01-30T01:12:26.785Z,16.150
2023-01-30T01:13:21.592Z,16.300
2023-01-30T01:14:35.253Z,15.100
2023-01-30T01:15:22.663Z,14.800
2023-01-30T01:16:26.250Z,15.400
2023-01-30T01:17:23.607Z,16.700
2023-01-30T01:18:30.541Z,15.700
2023-01-30T01:19:26.613Z,15.600
2023-01-30T01:20:24.614Z,15.000
2023-01-30T01:21:39.543Z,14.800
2023-01-30T01:22:26.497Z,14.200
2023-01-30T01:23:24.731Z,14.900
2023-01-30T01:24:20.871Z,14.600
2023-01-30T01:25:22.887Z,15.850
2023-01-30T01:26:21.149Z,16.200
2023-01-30T01:27:22.890Z,15.550
2023-01-30T01:28:33.034Z,14.500
2023-01-30T01:29:29.225Z,14.600
2023-01-30T01:30:27.628Z,15.950
2023-01-30T01:31:31.996Z,14.950
2023-01-30T01:32:27.551Z,15.500
2023-01-30T01:33:23.443Z,15.600
2023-01-30T01:34:22.726Z,14.800
2023-01-30T01:35:34.627Z,16.300
2023-01-30T01:36:53.149Z,14.400
2023-01-30T01:37:25.856Z,15.450
2023-01-30T01:38:37.904Z,15.300
2023-01-30T01:39:32.635Z,15.200
2023-01-30T01:40:21.972Z,16.800
2023-01-30T01:41:22.664Z,15.500
2023-01-30T01:42:34.755Z,16.950
2023-01-30T01:43:34.303Z,15.600
2023-01-30T01:44:21.593Z,15.550
2023-01-30T01:45:22.045Z,15.400
2023-01-30T01:46:34.213Z,15.250
2023-01-30T01:47:29.179Z,15.800
2023-01-30T01:48:23.101Z,16.000
2023-01-30T01:49:34.776Z,15.300
2023-01-30T01:50:29.709Z,15.600
2023-01-30T01:51:24.184Z,15.600
2023-01-30T01:52:21.395Z,15.600
2023-01-30T01:53:30.941Z,14.700
2023-01-30T01:54:34.158Z,16.450
2023-01-30T01:55:23.064Z,15.800
2023-01-30T01:56:33.945Z,14.650
2023-01-30T01:57:41.780Z,15.100
2023-01-30T01:58:23.514Z,15.150
2023-01-30T01:59:37.450Z,15.250
2023-01-30T02:00:33.174Z,14.300
2023-01-30T02:01:35.817Z,15.750
2023-01-30T02:07:43.181Z,14.100
2023-01-30T02:08:46.166Z,12.800
2023-01-30T02:09:25.653Z,13.700
2023-01-30T02:10:25.822Z,13.550
2023-01-30T02:11:34.942Z,13.000
2023-01-30T02:16:29.008Z,14.200
2023-01-30T02:18:06.514Z,11.950
2023-01-30T02:18:59.536Z,12.400
2023-01-30T02:19:40.791Z,12.900
2023-01-30T02:20:23.523Z,12.800
2023-01-30T02:21:27.938Z,12.200
2023-01-30T02:22:28.270Z,13.700
2023-01-30T02:23:22.811Z,13.400
2023-01-30T02:24:34.531Z,12.250
2023-01-30T02:25:24.554Z,12.050
2023-01-30T02:26:21.945Z,13.500
2023-01-30T02:27:20.791Z,13.400
2023-01-30T02:28:47.738Z,13.900
2023-01-30T02:29:28.699Z,13.000
2023-01-30T02:30:23.573Z,13.300
2023-01-30T02:31:21.565Z,12.850
2023-01-30T02:32:24.984Z,12.900
2023-01-30T02:33:23.188Z,15.050
2023-01-30T02:34:20.891Z,14.300
2023-01-30T02:35:33.303Z,14.550
2023-01-30T02:36:41.899Z,15.450
2023-01-30T02:37:23.220Z,13.800
2023-01-30T02:38:25.682Z,14.050
2023-01-30T02:39:29.781Z,13.650
2023-01-30T02:40:26.329Z,13.800
2023-01-30T02:41:22.385Z,13.400
2023-01-30T02:42:46.169Z,13.650
2023-01-30T02:43:23.744Z,13.200
2023-01-30T02:44:38.419Z,13.650
2023-01-30T02:45:27.073Z,12.300
2023-01-30T02:46:29.039Z,13.400
2023-01-30T02:47:25.727Z,12.300
2023-01-30T02:48:23.252Z,12.800
2023-01-30T02:49:23.632Z,11.600
2023-01-30T02:50:27.706Z,12.400
2023-01-30T02:51:38.216Z,12.050
2023-01-30T02:52:33.471Z,13.300
2023-01-30T02:53:45.064Z,11.500
2023-01-30T02:54:25.099Z,11.850
2023-01-30T02:55:21.734Z,11.550
2023-01-30T02:56:21.001Z,10.750
2023-01-30T02:57:28.792Z,10.900
2023-01-30T02:58:22.985Z,11.650
2023-01-30T02:59:34.438Z,11.700
2023-01-30T03:00:20.516Z,12.100
2023-01-30T03:01:26.377Z,12.250
2023-01-30T03:02:21.466Z,12.500
2023-01-30T03:03:26.443Z,12.750
2023-01-30T03:04:57.533Z,12.850
2023-01-30T03:05:23.259Z,12.100
2023-01-30T03:06:28.529Z,11.900
2023-01-30T03:07:25.330Z,11.700
2023-01-30T03:08:24.893Z,11.800
2023-01-30T03:09:22.518Z,12.600
2023-01-30T03:10:31.838Z,10.800
2023-01-30T03:11:22.611Z,14.000
2023-01-30T03:12:23.009Z,12.600
2023-01-30T03:13:34.967Z,11.300
2023-01-30T03:14:28.141Z,12.500
2023-01-30T03:15:24.892Z,11.850
2023-01-30T03:16:21.004Z,12.700
2023-01-30T03:17:27.590Z,11.600
2023-01-30T03:18:26.791Z,12.900
2023-01-30T03:19:19.813Z,13.300
2023-01-30T03:20:34.823Z,11.500
2023-01-30T03:21:29.467Z,11.850
2023-01-30T03:22:40.968Z,11.600
2023-01-30T03:23:23.634Z,11.500
2023-01-30T03:24:38.700Z,11.850
2023-01-30T03:25:26.377Z,10.600
2023-01-30T03:26:24.044Z,12.050
2023-01-30T03:27:34.416Z,11.900
2023-01-30T03:28:23.292Z,11.700
2023-01-30T03:29:25.238Z,11.700
2023-01-30T03:30:20.894Z,11.850
2023-01-30T03:31:32.966Z,11.700
2023-01-30T03:32:27.691Z,11.750
2023-01-30T03:33:27.990Z,12.300
2023-01-30T03:34:22.560Z,12.750
2023-01-30T03:35:29.231Z,13.200
2023-01-30T03:36:22.803Z,13.050
2023-01-30T03:37:20.881Z,13.800
2023-01-30T03:38:32.261Z,15.800
2023-01-30T03:39:21.054Z,14.500
2023-01-30T03:40:23.235Z,13.650
2023-01-30T03:41:25.565Z,14.000
2023-01-30T03:42:29.107Z,16.100
2023-01-30T03:43:25.235Z,13.250
2023-01-30T03:44:21.816Z,14.100
2023-01-30T03:45:26.412Z,12.400
2023-01-30T03:46:27.193Z,12.300
2023-01-30T03:47:25.165Z,13.900
2023-01-30T03:48:29.256Z,12.000
2023-01-30T03:49:19.536Z,11.900
2023-01-30T03:50:25.084Z,12.100
2023-01-30T03:51:21.315Z,12.800
2023-01-30T03:52:30.897Z,12.100
2023-01-30T03:53:29.312Z,11.500
2023-01-30T03:54:23.647Z,11.400
2023-01-30T03:55:34.413Z,12.500
2023-01-30T03:56:26.589Z,11.900
2023-01-30T03:57:19.947Z,11.800
2023-01-30T03:58:21.318Z,12.100
2023-01-30T03:59:32.875Z,12.450
2023-01-30T04:00:27.122Z,11.900
2023-01-30T04:01:23.176Z,11.800
2023-01-30T04:02:26.534Z,10.800
2023-01-30T04:03:30.992Z,11.900
2023-01-30T04:04:20.863Z,12.100
2023-01-30T04:05:21.591Z,12.300
2023-01-30T04:06:33.629Z,11.500
2023-01-30T04:07:44.039Z,11.350
2023-01-30T04:08:25.519Z,11.900
2023-01-30T04:09:33.353Z,11.700
2023-01-30T04:10:31.455Z,12.050
2023-01-30T04:11:24.953Z,11.600
2023-01-30T04:12:21.075Z,12.750
2023-01-30T04:13:23.495Z,11.750
2023-01-30T04:14:38.390Z,12.700
2023-01-30T04:15:24.621Z,11.600
2023-01-30T04:16:35.099Z,11.300
2023-01-30T04:17:29.385Z,12.300
2023-01-30T04:18:24.876Z,11.600
2023-01-30T04:19:21.523Z,11.100
2023-01-30T04:20:31.256Z,10.050
2023-01-30T04:21:42.497Z,12.100
2023-01-30T04:22:24.394Z,10.900
2023-01-30T04:23:22.332Z,11.400
2023-01-30T04:24:20.962Z,11.800
2023-01-30T04:25:25.483Z,11.950
2023-01-30T04:26:22.040Z,11.900
2023-01-30T04:27:23.196Z,10.500
2023-01-30T04:28:43.229Z,11.300
2023-01-30T04:29:24.039Z,10.300
2023-01-30T04:30:28.212Z,10.600
2023-01-30T04:31:29.987Z,11.150
2023-01-30T04:32:25.343Z,10.100
2023-01-30T04:33:22.291Z,10.400
2023-01-30T04:34:22.821Z,9.700
2023-01-30T04:35:20.251Z,11.100
2023-01-30T04:36:23.463Z,9.900
2023-01-30T04:37:29.752Z,10.200
2023-01-30T04:38:29.197Z,9.600
2023-01-30T04:39:26.524Z,10.000
2023-01-30T04:40:38.742Z,9.200
2023-01-30T04:41:24.421Z,9.400
2023-01-30T04:42:20.107Z,9.300
2023-01-30T04:43:23.327Z,9.100
2023-01-30T04:44:32.981Z,9.100
2023-01-30T04:45:30.177Z,9.800
2023-01-30T04:46:25.186Z,9.300
2023-01-30T04:47:22.717Z,8.900
2023-01-30T04:48:26.381Z,8.850
2023-01-30T04:49:23.578Z,8.400
2023-01-30T04:50:23.203Z,9.300
2023-01-30T04:51:34.531Z,9.700
2023-01-30T04:52:21.332Z,9.900
2023-01-30T04:53:25.197Z,8.600
2023-01-30T04:54:21.198Z,8.600
2023-01-30T04:55:32.922Z,8.600
2023-01-30T04:56:27.638Z,9.500
2023-01-30T04:57:27.648Z,8.750
2023-01-30T04:58:25.278Z,9.500
2023-01-30T04:59:24.464Z,9.400
2023-01-30T05:00:26.400Z,9.500
2023-01-30T05:01:21.807Z,10.250
2023-01-30T05:02:33.208Z,9.900
2023-01-30T05:03:21.358Z,9.500
2023-01-30T05:04:24.619Z,8.500
2023-01-30T05:05:22.923Z,9.550
2023-01-30T05:06:29.022Z,9.600
2023-01-30T05:07:25.053Z,9.200
2023-01-30T05:08:21.184Z,9.700
2023-01-30T05:09:31.413Z,8.100
2023-01-30T05:10:23.458Z,10.800
2023-01-30T05:11:23.181Z,10.250
2023-01-30T05:12:21.766Z,10.150
2023-01-30T05:13:20.559Z,10.300
2023-01-30T05:14:25.006Z,9.100
2023-01-30T05:15:22.823Z,8.900
2023-01-30T05:16:32.695Z,9.750
2023-01-30T05:17:27.465Z,9.200
2023-01-30T05:18:24.683Z,10.050
2023-01-30T05:19:25.583Z,9.100
2023-01-30T05:20:24.641Z,8.600
2023-01-30T05:21:20.494Z,8.700
2023-01-30T05:22:21.088Z,8.800
2023-01-30T05:23:31.334Z,9.300
2023-01-30T05:24:30.011Z,9.100
2023-01-30T05:25:23.373Z,7.900
2023-01-30T05:26:24.672Z,8.250
2023-01-30T05:27:23.644Z,8.850
2023-01-30T05:28:23.537Z,9.150
2023-01-30T05:29:21.008Z,9.600
2023-01-30T05:30:33.500Z,9.600
2023-01-30T05:31:27.115Z,11.100
2023-01-30T05:32:29.009Z,10.000
2023-01-30T05:33:34.932Z,9.350
2023-01-30T05:34:30.374Z,10.000
2023-01-30T05:35:20.185Z,8.600
2023-01-30T05:36:35.082Z,8.700
2023-01-30T05:37:21.197Z,9.150
2023-01-30T05:38:28.387Z,9.800
2023-01-30T05:39:21.384Z,9.650
2023-01-30T05:40:32.997Z,9.400
2023-01-30T05:41:30.811Z,10.400
2023-01-30T05:42:23.772Z,9.600
2023-01-30T05:43:25.974Z,9.400
2023-01-30T05:44:32.854Z,9.700
2023-01-30T05:45:40.128Z,9.500
2023-01-30T05:46:24.471Z,10.700
2023-01-30T05:47:34.420Z,9.300
2023-01-30T05:48:29.888Z,9.100
2023-01-30T05:49:27.307Z,9.050
2023-01-30T05:50:21.419Z,9.700
2023-01-30T05:51:20.645Z,9.100
2023-01-30T05:52:27.778Z,9.550
2023-01-30T05:53:25.069Z,8.900
2023-01-30T05:54:24.765Z,8.700
2023-01-30T05:55:29.053Z,9.650
2023-01-30T05:56:25.335Z,10.900
2023-01-30T05:57:26.354Z,9.250
2023-01-30T05:58:24.714Z,9.350
2023-01-30T05:59:29.833Z,8.900
2023-01-30T06:00:23.871Z,9.650
2023-01-30T06:01:33.345Z,10.100
2023-01-30T06:02:30.807Z,8.750
2023-01-30T06:03:25.302Z,9.100
2023-01-30T06:04:22.581Z,9.400
2023-01-30T06:05:21.573Z,9.700
2023-01-30T06:06:24.296Z,9.650
2023-01-30T06:07:23.130Z,9.650
2023-01-30T06:08:20.385Z,10.150
2023-01-30T06:09:31.695Z,10.400
2023-01-30T06:10:25.276Z,9.600
2023-01-30T06:11:22.872Z,9.000
2023-01-30T06:12:26.198Z,10.150
2023-01-30T06:13:27.539Z,8.400
2023-01-30T06:14:23.099Z,8.900
2023-01-30T06:15:23.355Z,8.850
2023-01-30T06:16:31.386Z,8.900
2023-01-30T06:17:25.540Z,9.600
2023-01-30T06:18:21.788Z,8.400
2023-01-30T06:19:31.454Z,9.300
2023-01-30T06:20:22.753Z,9.250
2023-01-30T06:21:23.525Z,9.500
2023-01-30T06:22:23.797Z,10.200
2023-01-30T06:23:29.781Z,9.900
2023-01-30T06:24:25.520Z,11.000
2023-01-30T06:25:22.276Z,9.950
2023-01-30T06:26:21.385Z,8.550
2023-01-30T06:27:27.443Z,9.400
2023-01-30T06:28:19.383Z,9.100
2023-01-30T06:29:20.820Z,9.650
2023-01-30T06:30:29.915Z,10.700
2023-01-30T06:31:26.648Z,9.950
2023-01-30T06:32:21.544Z,9.850
2023-01-30T06:33:24.510Z,10.600
2023-01-30T06:34:27.923Z,11.000
2023-01-30T06:35:23.467Z,9.900
2023-01-30T06:36:24.943Z,10.050
2023-01-30T06:37:21.259Z,9.750
2023-01-30T06:38:26.220Z,9.250
2023-01-30T06:39:24.596Z,9.500
2023-01-30T06:40:29.507Z,9.850
2023-01-30T06:41:36.450Z,10.050
2023-01-30T06:42:25.926Z,11.000
2023-01-30T06:43:20.625Z,10.750
2023-01-30T06:44:23.154Z,10.300
2023-01-30T06:45:26.097Z,10.300
2023-01-30T06:46:21.528Z,12.000
2023-01-30T06:47:32.744Z,10.550
2023-01-30T06:48:27.212Z,10.200
2023-01-30T06:49:33.450Z,10.750
2023-01-30T06:50:20.572Z,10.750
2023-01-30T06:51:29.215Z,11.400
2023-01-30T06:52:19.617Z,12.650
2023-01-30T06:53:22.128Z,11.300
2023-01-30T06:54:34.894Z,11.600
2023-01-30T06:55:20.917Z,10.600
2023-01-30T06:56:26.677Z,10.800
2023-01-30T06:57:28.258Z,10.150
2023-01-30T06:58:21.878Z,9.700
2023-01-30T06:59:26.855Z,11.850
2023-01-30T07:00:22.273Z,10.700
2023-01-30T07:01:38.644Z,10.600
2023-01-30T07:02:23.670Z,11.500
2023-01-30T07:03:40.902Z,10.800
2023-01-30T07:04:33.487Z,9.800
2023-01-30T07:05:25.401Z,10.850
2023-01-30T07:06:27.835Z,11.200
2023-01-30T07:07:22.496Z,11.200
2023-01-30T07:08:36.500Z,10.000
2023-01-30T07:09:28.107Z,10.850
2023-01-30T07:10:23.380Z,11.400
2023-01-30T07:11:37.254Z,10.200
2023-01-30T07:12:30.048Z,10.350
2023-01-30T07:13:23.218Z,10.100
2023-01-30T07:14:21.989Z,10.250
2023-01-30T07:15:31.483Z,10.650
2023-01-30T07:16:29.899Z,10.400
2023-01-30T07:17:24.848Z,11.400
2023-01-30T07:18:20.975Z,9.400
2023-01-30T07:19:30.821Z,10.350
2023-01-30T07:20:27.931Z,10.400
2023-01-30T07:21:21.131Z,10.800
2023-01-30T07:22:23.442Z,9.650
2023-01-30T07:23:27.515Z,10.400
2023-01-30T07:24:19.305Z,11.500
2023-01-30T07:25:19.569Z,10.200
2023-01-30T07:26:29.801Z,10.600
2023-01-30T07:27:32.300Z,10.500
2023-01-30T07:28:23.826Z,10.900
2023-01-30T07:29:26.771Z,9.600
2023-01-30T07:30:20.750Z,10.800
2023-01-30T07:31:22.728Z,10.600
2023-01-30T07:32:33.516Z,10.900
2023-01-30T07:33:31.610Z,10.900
2023-01-30T07:34:25.865Z,13.300
2023-01-30T07:35:27.373Z,11.450
2023-01-30T07:36:22.648Z,10.800
2023-01-30T07:37:25.508Z,10.450
2023-01-30T07:38:26.633Z,11.700
2023-01-30T07:39:33.284Z,10.900
2023-01-30T07:40:48.416Z,10.500
2023-01-30T07:41:28.319Z,11.000
2023-01-30T07:42:21.547Z,10.800
2023-01-30T07:43:24.476Z,10.700
2023-01-30T07:44:29.922Z,11.450
2023-01-30T07:45:21.420Z,11.600
2023-01-30T07:46:19.811Z,13.100
2023-01-30T07:47:31.340Z,12.400
2023-01-30T07:48:26.433Z,11.800
2023-01-30T07:49:24.278Z,10.900
2023-01-30T07:50:33.125Z,13.200
2023-01-30T07:51:21.747Z,12.500
2023-01-30T07:52:25.550Z,12.900
2023-01-30T07:53:19.747Z,15.350
2023-01-30T07:54:30.109Z,16.700
2023-01-30T07:55:26.502Z,13.500
2023-01-30T07:56:21.480Z,13.650
2023-01-30T07:57:32.719Z,14.100
2023-01-30T07:58:29.982Z,16.250
2023-01-30T07:59:23.491Z,15.500
2023-01-30T08:00:22.583Z,14.400
2023-01-30T08:01:30.799Z,15.100
2023-01-30T08:02:25.291Z,14.800
2023-01-30T08:03:23.152Z,14.700
2023-01-30T08:04:38.193Z,14.400
2023-01-30T08:05:29.280Z,13.100
2023-01-30T08:06:25.229Z,14.400
2023-01-30T08:07:19.403Z,14.350
2023-01-30T08:08:20.154Z,14.000
2023-01-30T08:09:39.490Z,14.600
2023-01-30T08:10:21.908Z,13.600
2023-01-30T08:11:19.812Z,12.950
2023-01-30T08:12:33.424Z,12.500
2023-01-30T08:13:24.348Z,12.600
2023-01-30T08:14:27.702Z,11.000
2023-01-30T08:15:27.265Z,13.400
2023-01-30T08:16:25.690Z,11.700
2023-01-30T08:17:23.495Z,11.200
2023-01-30T08:18:23.679Z,12.100
2023-01-30T08:19:29.546Z,13.400
2023-01-30T08:20:24.435Z,14.300
2023-01-30T08:21:19.512Z,11.800
2023-01-30T08:22:29.484Z,11.600
2023-01-30T08:23:24.372Z,11.600
2023-01-30T08:24:37.715Z,12.150
2023-01-30T08:25:25.705Z,14.900
2023-01-30T08:26:41.316Z,11.800
2023-01-30T08:27:36.500Z,12.300
2023-01-30T08:28:20.209Z,12.400
2023-01-30T08:29:20.650Z,13.750
2023-01-30T08:30:26.313Z,12.950
2023-01-30T08:31:21.699Z,12.100
2023-01-30T08:32:33.969Z,12.050
2023-01-30T08:33:27.550Z,12.300
2023-01-30T08:34:25.569Z,12.900
2023-01-30T08:35:19.799Z,11.350
2023-01-30T08:36:25.318Z,11.600
2023-01-30T08:37:26.122Z,12.150
2023-01-30T08:38:23.349Z,11.750
2023-01-30T08:39:31.972Z,12.500
2023-01-30T08:40:29.632Z,11.550
2023-01-30T08:41:23.613Z,12.850
2023-01-30T08:42:20.955Z,13.000
2023-01-30T08:43:29.473Z,13.450
2023-01-30T08:44:22.047Z,12.200
2023-01-30T08:45:21.607Z,12.700
2023-01-30T08:46:20.946Z,12.000
2023-01-30T08:47:21.578Z,15.200
2023-01-30T08:48:23.534Z,13.400
2023-01-30T08:49:35.647Z,12.000
2023-01-30T08:50:32.445Z,13.500
2023-01-30T08:51:27.412Z,13.900
2023-01-30T08:52:21.759Z,12.850
2023-01-30T08:53:24.612Z,13.950
2023-01-30T08:54:27.375Z,13.600
2023-01-30T08:55:23.511Z,14.450
2023-01-30T08:56:47.705Z,15.800
2023-01-30T08:57:32.444Z,14.800
2023-01-30T08:58:19.613Z,14.300
2023-01-30T08:59:22.664Z,14.600
2023-01-30T09:00:31.271Z,14.150
2023-01-30T09:01:21.502Z,14.800
2023-01-30T09:02:23.275Z,14.500
2023-01-30T09:03:50.823Z,14.450
2023-01-30T09:04:36.818Z,13.400
2023-01-30T09:05:27.529Z,14.700
2023-01-30T09:06:21.335Z,15.900
2023-01-30T09:07:33.578Z,15.150
2023-01-30T09:08:26.185Z,12.700
2023-01-30T09:09:53.021Z,13.300
2023-01-30T09:10:53.997Z,12.800
2023-01-30T09:11:29.813Z,13.300
2023-01-30T09:12:45.815Z,12.200
2023-01-30T09:13:22.538Z,14.200
2023-01-30T09:14:24.479Z,13.450
2023-01-30T09:15:30.388Z,13.000
2023-01-30T09:16:23.340Z,14.100
2023-01-30T09:17:19.548Z,14.200
2023-01-30T09:18:30.259Z,13.000
2023-01-30T09:19:26.845Z,14.000
2023-01-30T09:20:21.980Z,13.750
2023-01-30T09:21:27.393Z,13.000
2023-01-30T09:22:21.408Z,13.400
2023-01-30T09:23:29.723Z,14.950
2023-01-30T09:24:20.316Z,13.700
2023-01-30T09:25:31.318Z,16.000
2023-01-30T09:26:33.157Z,14.200
2023-01-30T09:27:38.469Z,14.900
2023-01-30T09:28:32.742Z,14.400
2023-01-30T09:29:26.061Z,15.000
2023-01-30T09:30:23.728Z,15.600
2023-01-30T09:31:24.601Z,14.400
2023-01-30T09:32:49.201Z,14.600
2023-01-30T09:33:24.144Z,14.000
2023-01-30T09:34:37.271Z,15.850
2023-01-30T09:35:35.919Z,17.000
2023-01-30T09:36:30.421Z,15.500
2023-01-30T09:37:21.599Z,15.700
2023-01-30T09:38:29.189Z,16.200
2023-01-30T09:39:22.121Z,16.200
2023-01-30T09:40:40.217Z,14.400
2023-01-30T09:41:26.175Z,14.300
2023-01-30T09:42:40.937Z,14.450
2023-01-30T09:43:33.799Z,15.900
2023-01-30T09:44:20.787Z,16.200
2023-01-30T09:45:33.333Z,15.100
2023-01-30T09:46:26.348Z,14.700
2023-01-30T09:47:40.682Z,14.650
2023-01-30T09:48:27.916Z,14.800
2023-01-30T09:49:45.255Z,14.600
2023-01-30T09:50:26.030Z,15.800
2023-01-30T09:51:30.705Z,15.100
2023-01-30T09:52:24.726Z,15.600
2023-01-30T09:53:31.150Z,15.500
2023-01-30T09:54:23.365Z,15.350
2023-01-30T09:55:30.973Z,16.300
2023-01-30T09:56:30.297Z,17.050
2023-01-30T09:57:44.120Z,15.350
2023-01-30T09:58:35.088Z,18.500
2023-01-30T09:59:27.970Z,17.700
2023-01-30T10:00:34.850Z,17.500
2023-01-30T10:01:21.691Z,18.100
2023-01-30T10:02:22.604Z,17.700
2023-01-30T10:03:21.483Z,18.100
2023-01-30T10:05:00.565Z,17.300
2023-01-30T10:05:39.534Z,18.000
2023-01-30T10:06:31.188Z,19.100
2023-01-30T10:07:28.019Z,18.350
2023-01-30T10:08:32.184Z,17.600
2023-01-30T10:09:25.896Z,19.200
2023-01-30T10:10:25.667Z,17.950
2023-01-30T10:11:49.540Z,18.850
2023-01-30T10:12:42.388Z,18.100
2023-01-30T10:13:36.524Z,19.000
2023-01-30T10:14:29.975Z,16.800
2023-01-30T10:15:21.318Z,18.600
2023-01-30T10:16:29.954Z,18.300
2023-01-30T10:17:22.337Z,19.400
2023-01-30T10:18:23.556Z,18.600
2023-01-30T10:19:37.745Z,17.900
2023-01-30T10:20:34.652Z,17.600
2023-01-30T10:21:24.078Z,18.900
2023-01-30T10:22:25.041Z,18.050
2023-01-30T10:23:33.334Z,18.200
2023-01-30T10:24:29.969Z,19.700
2023-01-30T10:25:19.334Z,18.650
2023-01-30T10:26:51.915Z,18.800
2023-01-30T10:27:44.189Z,20.050
2023-01-30T10:28:26.587Z,18.700
2023-01-30T10:29:21.486Z,18.200
2023-01-30T10:30:21.942Z,18.550
2023-01-30T10:31:32.709Z,19.100
2023-01-30T10:32:21.691Z,18.950
2023-01-30T10:33:55.773Z,19.200
2023-01-30T10:34:42.315Z,18.900
2023-01-30T10:35:30.065Z,20.300
2023-01-30T10:36:32.543Z,19.800
2023-01-30T10:37:26.696Z,19.700
2023-01-30T10:38:35.800Z,18.800
2023-01-30T10:39:22.796Z,18.800
2023-01-30T10:40:21.011Z,19.600
2023-01-30T10:41:32.299Z,19.400
2023-01-30T10:42:30.498Z,19.900
2023-01-30T10:43:36.595Z,19.100
2023-01-30T10:44:32.604Z,18.700
2023-01-30T10:45:22.483Z,18.700
2023-01-30T10:46:22.365Z,18.150
2023-01-30T10:47:26.484Z,19.200
2023-01-30T10:48:49.490Z,19.200
2023-01-30T10:49:35.472Z,17.200
2023-01-30T10:50:21.730Z,17.250
2023-01-30T10:51:33.610Z,17.300
2023-01-30T10:52:29.102Z,17.150
2023-01-30T10:53:29.232Z,16.900
2023-01-30T10:54:29.360Z,16.300
2023-01-30T10:55:36.394Z,16.900
2023-01-30T10:56:39.398Z,17.100
2023-01-30T10:57:23.968Z,17.100
2023-01-30T10:58:33.584Z,16.050
2023-01-30T10:59:31.423Z,16.800
2023-01-30T11:00:25.151Z,16.500
2023-01-30T11:01:35.415Z,16.400
2023-01-30T11:02:27.225Z,18.400
2023-01-30T11:03:20.684Z,16.200
2023-01-30T11:04:27.259Z,15.900
2023-01-30T11:05:42.827Z,16.100
2023-01-30T11:06:35.819Z,14.700
2023-01-30T11:07:28.528Z,14.800
2023-01-30T11:08:22.022Z,14.800
2023-01-30T11:09:31.073Z,15.100
2023-01-30T11:10:24.066Z,15.900
2023-01-30T11:11:29.629Z,15.500
2023-01-30T11:12:47.319Z,16.000
2023-01-30T11:13:40.903Z,16.000
2023-01-30T11:14:22.048Z,16.800
2023-01-30T11:15:26.646Z,16.100
2023-01-30T11:16:35.370Z,16.100
2023-01-30T11:17:29.832Z,16.000
2023-01-30T11:19:31.605Z,16.050
2023-01-30T11:19:31.942Z,16.800
2023-01-30T11:20:27.553Z,14.950
2023-01-30T11:21:43.883Z,14.900
2023-01-30T11:22:30.467Z,15.400
2023-01-30T11:23:22.243Z,15.600
2023-01-30T11:24:33.450Z,15.700
2023-01-30T11:25:27.113Z,15.100
2023-01-30T11:26:24.056Z,14.800
2023-01-30T11:27:47.920Z,16.150
2023-01-30T11:28:41.131Z,15.900
2023-01-30T11:29:33.788Z,15.500
2023-01-30T11:30:25.291Z,15.400
2023-01-30T11:31:40.050Z,15.650
2023-01-30T11:32:31.587Z,15.550
2023-01-30T11:33:23.092Z,15.650
2023-01-30T11:34:52.354Z,16.300
2023-01-30T11:35:45.351Z,16.300
2023-01-30T11:36:36.889Z,14.600
2023-01-30T11:37:20.638Z,16.950
2023-01-30T11:38:22.303Z,16.800
2023-01-30T11:39:34.376Z,16.700
2023-01-30T11:40:29.899Z,15.700
2023-01-30T11:41:55.786Z,15.050
2023-01-30T11:42:20.328Z,16.800
2023-01-30T11:43:34.663Z,16.200
2023-01-30T11:44:25.630Z,14.100
2023-01-30T11:45:26.597Z,15.000
2023-01-30T11:46:38.295Z,16.100
2023-01-30T11:47:31.745Z,16.600
2023-01-30T11:48:33.271Z,16.450
2023-01-30T11:49:45.400Z,15.100
2023-01-30T11:50:41.960Z,14.500
2023-01-30T11:51:32.678Z,16.250
2023-01-30T11:52:30.610Z,15.250
2023-01-30T11:53:25.086Z,16.200
2023-01-30T11:54:30.137Z,14.500
2023-01-30T11:55:22.771Z,15.200
2023-01-30T11:56:23.604Z,15.700
2023-01-30T11:57:44.674Z,15.850
2023-01-30T11:58:31.572Z,14.600
2023-01-30T11:59:22.188Z,16.400
2023-01-30T12:00:28.603Z,16.650
2023-01-30T12:01:22.468Z,16.200
2023-01-30T12:02:25.160Z,15.900
2023-01-30T12:03:26.533Z,17.450
2023-01-30T12:04:47.936Z,16.200
2023-01-30T12:05:28.060Z,15.200
2023-01-30T12:06:20.000Z,16.250
2023-01-30T12:07:32.942Z,16.100
2023-01-30T12:08:40.703Z,16.700
2023-01-30T12:09:27.681Z,15.700
2023-01-30T12:10:30.107Z,16.350
2023-01-30T12:11:23.031Z,16.500
2023-01-30T12:12:37.685Z,14.400
2023-01-30T12:13:23.141Z,15.900
2023-01-30T12:14:36.499Z,15.600
2023-01-30T12:15:28.579Z,15.500
2023-01-30T12:16:25.670Z,16.100
2023-01-30T12:17:34.373Z,15.800
2023-01-30T12:18:27.272Z,16.350
2023-01-30T12:19:20.087Z,15.300
2023-01-30T12:20:25.578Z,15.500
2023-01-30T12:21:41.162Z,16.550
2023-01-30T12:22:33.877Z,16.000
2023-01-30T12:23:26.896Z,16.600
2023-01-30T12:24:24.257Z,15.700
2023-01-30T12:25:31.248Z,15.400
2023-01-30T12:26:24.256Z,15.950
2023-01-30T12:27:23.305Z,15.100
2023-01-30T12:28:35.608Z,15.900
2023-01-30T12:29:37.640Z,16.500
2023-01-30T12:30:31.544Z,16.000
2023-01-30T12:31:24.084Z,16.100
2023-01-30T12:32:35.507Z,16.600
2023-01-30T12:33:30.816Z,15.950
2023-01-30T12:34:27.137Z,17.200
2023-01-30T12:35:49.677Z,15.650
2023-01-30T12:36:42.746Z,14.800
2023-01-30T12:37:34.901Z,16.000
2023-01-30T12:38:28.191Z,15.900
2023-01-30T12:39:31.101Z,14.500
2023-01-30T12:40:34.751Z,15.200